createdAt,value
2022-12-13T00:00:58.006Z,101126.28
2022-12-13T00:03:24.429Z,101121.91
2022-12-13T00:05:50.866Z,101127.88
2022-12-13T00:08:17.374Z,101124.31
2022-12-13T00:10:43.836Z,101123.59
2022-12-13T00:13:10.203Z,101129.75
2022-12-13T00:15:36.701Z,101116.97
2022-12-13T00:18:03.155Z,101105.31
2022-12-13T00:20:29.641Z,101123.09
2022-12-13T00:22:56.161Z,101124.91
2022-12-13T00:25:22.738Z,101124.16
2022-12-13T00:27:49.168Z,101129.47
2022-12-13T00:30:15.679Z,101104.84
2022-12-13T00:32:42.147Z,101126.97
2022-12-13T00:35:08.630Z,101117.72
2022-12-13T00:37:35.340Z,101129.09
2022-12-13T00:40:01.839Z,101110.31
2022-12-13T00:42:29.274Z,101115.28
2022-12-13T00:44:55.861Z,101112.94
2022-12-13T00:47:24.227Z,101104.53
2022-12-13T00:49:51.493Z,101106.16
2022-12-13T00:52:18.042Z,101102.78
2022-12-13T00:54:44.425Z,101095.69
2022-12-13T00:57:10.959Z,101107.56
2022-12-13T00:59:37.356Z,101100.84
2022-12-13T01:02:03.952Z,101100.84
2022-12-13T01:04:30.424Z,101100.63
2022-12-13T01:06:56.931Z,101098.22
2022-12-13T01:09:27.531Z,101100.44
2022-12-13T01:12:11.953Z,101096.16
2022-12-13T01:14:40.588Z,101093.94
2022-12-13T01:17:07.731Z,101093.09
2022-12-13T01:19:34.527Z,101097.47
2022-12-13T01:22:04.241Z,101094.09
2022-12-13T01:24:31.921Z,101097.66
2022-12-13T01:26:58.496Z,101100.28
2022-12-13T01:29:26.652Z,101094.94
2022-12-13T01:31:53.843Z,101095.81
2022-12-13T01:34:26.689Z,101098.50
2022-12-13T01:36:54.475Z,101090.78
2022-12-13T01:39:26.651Z,101082.19
2022-12-13T01:42:00.016Z,101090.84
2022-12-13T01:45:09.033Z,101088.06
2022-12-13T01:47:46.421Z,101095.03
2022-12-13T01:50:18.763Z,101095.25
2022-12-13T01:52:46.505Z,101096.16
2022-12-13T01:55:16.780Z,101100.84
2022-12-13T01:57:45.972Z,101090.78
2022-12-13T02:00:13.432Z,101094.94
2022-12-13T02:02:40.180Z,101096.81
2022-12-13T02:05:28.796Z,101093.00
2022-12-13T02:07:58.175Z,101086.09
2022-12-13T02:10:26.855Z,101083.84
2022-12-13T02:12:53.389Z,101087.75
2022-12-13T02:15:20.869Z,101097.25
2022-12-13T02:17:54.394Z,101090.66
2022-12-13T02:20:31.688Z,101089.34
2022-12-13T02:23:41.084Z,101091.41
2022-12-13T02:26:31.188Z,101078.72
2022-12-13T02:29:31.767Z,101081.50
2022-12-13T02:32:15.618Z,101080.84
2022-12-13T02:34:53.828Z,101085.97
2022-12-13T02:37:45.039Z,101083.38
2022-12-13T02:40:26.601Z,101080.50
2022-12-13T02:43:04.764Z,101072.84
2022-12-13T02:45:58.889Z,101072.19
2022-12-13T02:48:39.454Z,101071.88
2022-12-13T02:51:09.418Z,101082.91
2022-12-13T02:53:39.795Z,101073.97
2022-12-13T02:56:06.334Z,101072.94
2022-12-13T02:58:40.684Z,101071.72
2022-12-13T03:01:28.783Z,101075.81
2022-12-13T03:04:02.336Z,101075.25
2022-12-13T03:06:46.835Z,101073.31
2022-12-13T03:09:25.485Z,101067.69
2022-12-13T03:12:40.622Z,101065.03
2022-12-13T03:15:16.203Z,101073.31
2022-12-13T03:17:51.989Z,101068.38
2022-12-13T03:20:24.366Z,101068.38
2022-12-13T03:22:52.420Z,101074.72
2022-12-13T03:25:31.816Z,101069.69
2022-12-13T03:28:01.330Z,101063.91
2022-12-13T03:30:30.561Z,101076.94
2022-12-13T03:32:57.007Z,101061.28
2022-12-13T03:35:23.886Z,101055.88
2022-12-13T03:37:50.946Z,101073.69
2022-12-13T03:40:19.545Z,101062.97
2022-12-13T03:42:47.202Z,101064.44
2022-12-13T03:45:14.150Z,101065.91
2022-12-13T03:47:40.811Z,101057.19
2022-12-13T03:50:26.660Z,101063.69
2022-12-13T03:53:01.606Z,101043.34
2022-12-13T03:55:29.094Z,101061.16
2022-12-13T03:57:56.008Z,101063.31
2022-12-13T04:00:22.877Z,101063.50
2022-12-13T04:02:49.561Z,101063.59
2022-12-13T04:05:16.440Z,101059.94
2022-12-13T04:07:49.260Z,101062.91
2022-12-13T04:10:25.125Z,101054.78
2022-12-13T04:13:12.505Z,101052.53
2022-12-13T04:15:39.721Z,101044.38
2022-12-13T04:18:06.515Z,101045.50
2022-12-13T04:20:32.947Z,101054.91
2022-12-13T04:22:59.437Z,101045.16
2022-12-13T04:25:25.925Z,101056.19
2022-12-13T04:27:52.411Z,101052.78
2022-12-13T04:30:18.874Z,101049.97
2022-12-13T04:32:45.404Z,101052.22
2022-12-13T04:35:11.851Z,101044.34
2022-12-13T04:37:38.251Z,101043.84
2022-12-13T04:40:05.232Z,101049.16
2022-12-13T04:42:31.720Z,101042.59
2022-12-13T04:44:58.138Z,101043.25
2022-12-13T04:47:24.536Z,101052.78
2022-12-13T04:49:51.096Z,101039.06
2022-12-13T04:52:22.183Z,101043.81
2022-12-13T04:54:55.744Z,101040.34
2022-12-13T04:57:23.255Z,101051.41
2022-12-13T04:59:49.906Z,101042.09
2022-12-13T05:02:24.022Z,101037.78
2022-12-13T05:04:53.849Z,101035.19
2022-12-13T05:07:21.680Z,101040.19
2022-12-13T05:09:48.629Z,101034.84
2022-12-13T05:12:22.240Z,101029.06
2022-12-13T05:14:49.919Z,101031.94
2022-12-13T05:17:16.786Z,101031.94
2022-12-13T05:19:43.765Z,101026.03
2022-12-13T05:22:19.729Z,101033.38
2022-12-13T05:24:47.141Z,101034.31
2022-12-13T05:27:24.444Z,101026.78
2022-12-13T05:30:02.105Z,101029.25
2022-12-13T05:32:33.885Z,101035.41
2022-12-13T05:35:11.680Z,101037.13
2022-12-13T05:37:38.172Z,101032.28
2022-12-13T05:40:05.433Z,101030.06
2022-12-13T05:42:32.067Z,101033.34
2022-12-13T05:44:58.444Z,101025.78
2022-12-13T05:47:24.926Z,101035.03
2022-12-13T05:49:52.187Z,101033.38
2022-12-13T05:52:20.432Z,101032.09
2022-12-13T05:54:47.288Z,101030.38
2022-12-13T05:57:14.314Z,101032.66
2022-12-13T05:59:41.147Z,101030.63
2022-12-13T06:02:07.641Z,101017.34
2022-12-13T06:04:34.207Z,101027.34
2022-12-13T06:07:00.671Z,101032.38
2022-12-13T06:09:27.064Z,101024.47
2022-12-13T06:12:00.920Z,101021.75
2022-12-13T06:14:28.260Z,101010.34
2022-12-13T06:16:54.843Z,101004.56
2022-12-13T06:19:22.536Z,101014.59
2022-12-13T06:21:51.023Z,101012.84
2022-12-13T06:24:19.720Z,101011.16
2022-12-13T06:26:47.894Z,101019.63
2022-12-13T06:29:22.545Z,101013.50
2022-12-13T06:32:01.865Z,101022.44
2022-12-13T06:34:34.763Z,101013.50
2022-12-13T06:37:05.584Z,101023.94
2022-12-13T06:39:34.118Z,101019.63
2022-12-13T06:42:06.396Z,101012.09
2022-12-13T06:44:33.579Z,101021.91
2022-12-13T06:47:11.532Z,101020.41
2022-12-13T06:49:39.940Z,101025.91
2022-12-13T06:52:10.007Z,101026.28
2022-12-13T06:54:36.533Z,101025.13
2022-12-13T06:57:02.988Z,101010.38
2022-12-13T06:59:29.353Z,101027.56
2022-12-13T07:01:55.842Z,101018.06
2022-12-13T07:04:31.492Z,101028.97
2022-12-13T07:07:01.621Z,101024.59
2022-12-13T07:09:30.274Z,101028.59
2022-12-13T07:11:56.809Z,101010.16
2022-12-13T07:14:23.210Z,101028.59
2022-12-13T07:16:49.606Z,101034.75
2022-12-13T07:19:22.658Z,101043.53
2022-12-13T07:21:50.758Z,101035.63
2022-12-13T07:24:17.214Z,101040.00
2022-12-13T07:26:43.683Z,101045.78
2022-12-13T07:29:10.107Z,101047.59
2022-12-13T07:31:37.572Z,101048.50
2022-12-13T07:34:04.418Z,101047.19
2022-12-13T07:36:30.937Z,101049.78
2022-12-13T07:38:58.472Z,101053.97
2022-12-13T07:41:26.241Z,101054.16
2022-12-13T07:43:55.441Z,101053.69
2022-12-13T07:46:32.123Z,101064.63
2022-12-13T07:49:05.053Z,101057.09
2022-12-13T07:51:34.290Z,101049.16
2022-12-13T07:54:00.805Z,101052.22
2022-12-13T07:56:33.705Z,101054.28
2022-12-13T07:59:00.078Z,101052.88
2022-12-13T08:01:26.569Z,101052.66
2022-12-13T08:03:52.985Z,101046.03
2022-12-13T08:06:19.981Z,101046.78
2022-12-13T08:08:46.767Z,101045.75
2022-12-13T08:11:16.618Z,101026.88
2022-12-13T08:13:43.487Z,101046.84
2022-12-13T08:16:26.685Z,101053.53
2022-12-13T08:19:02.593Z,101045.63
2022-12-13T08:21:55.054Z,101054.44
2022-12-13T08:24:31.628Z,101056.66
2022-12-13T08:27:03.631Z,101055.81
2022-12-13T08:29:34.980Z,101065.53
2022-12-13T08:32:08.525Z,101069.03
2022-12-13T08:34:35.483Z,101061.69
2022-12-13T08:37:03.932Z,101068.44
2022-12-13T08:39:38.181Z,101070.09
2022-12-13T08:42:16.229Z,101063.41
2022-12-13T08:44:50.102Z,101082.88
2022-12-13T08:47:22.896Z,101074.13
2022-12-13T08:49:52.005Z,101079.63
2022-12-13T08:52:19.583Z,101070.97
2022-12-13T08:54:46.072Z,101071.44
2022-12-13T08:57:14.035Z,101066.03
2022-12-13T08:59:40.513Z,101073.31
2022-12-13T09:02:07.084Z,101071.34
2022-12-13T09:04:33.571Z,101062.41
2022-12-13T09:07:01.677Z,101060.34
2022-12-13T09:09:29.351Z,101073.97
2022-12-13T09:11:59.688Z,101069.03
2022-12-13T09:14:33.834Z,101070.06
2022-12-13T09:17:03.056Z,101081.03
2022-12-13T09:19:36.952Z,101075.66
2022-12-13T09:22:04.893Z,101075.19
2022-12-13T09:24:36.454Z,101072.47
2022-12-13T09:27:09.128Z,101071.94
2022-12-13T09:29:38.225Z,101076.97
2022-12-13T09:32:05.131Z,101067.19
2022-12-13T09:34:33.123Z,101082.84
2022-12-13T09:37:01.420Z,101069.88
2022-12-13T09:39:28.731Z,101061.84
2022-12-13T09:42:01.087Z,101064.94
2022-12-13T09:44:43.742Z,101061.28
2022-12-13T09:47:23.178Z,101059.22
2022-12-13T09:49:52.140Z,101045.16
2022-12-13T09:52:22.734Z,101059.59
2022-12-13T09:54:54.329Z,101057.66
2022-12-13T09:57:32.021Z,101054.38
2022-12-13T10:00:02.435Z,101052.97
2022-12-13T10:02:32.323Z,101052.78
2022-12-13T10:05:22.281Z,101055.72
2022-12-13T10:07:50.403Z,101043.47
2022-12-13T10:10:16.805Z,101042.88
2022-12-13T10:12:45.532Z,101040.69
2022-12-13T10:15:21.683Z,101036.56
2022-12-13T10:17:55.270Z,101039.06
2022-12-13T10:20:28.925Z,101037.13
2022-12-13T10:23:31.483Z,101043.94
2022-12-13T10:25:51.597Z,101039.16
2022-12-13T10:28:24.247Z,101027.44
2022-12-13T10:30:50.862Z,101028.63
2022-12-13T10:33:38.497Z,101022.16
2022-12-13T10:36:14.652Z,101014.44
2022-12-13T10:38:44.129Z,101008.50
2022-12-13T10:41:30.523Z,101003.78
2022-12-13T10:44:11.986Z,101004.47
2022-12-13T10:47:04.625Z,101004.97
2022-12-13T10:49:39.224Z,101009.22
2022-12-13T10:52:07.297Z,101007.28
2022-12-13T10:54:38.312Z,100997.53
2022-12-13T10:57:11.219Z,100994.47
2022-12-13T10:59:39.566Z,100986.91
2022-12-13T11:02:32.849Z,100990.91
2022-12-13T11:05:01.065Z,100990.97
2022-12-13T11:07:29.286Z,100989.84
2022-12-13T11:10:15.135Z,100984.72
2022-12-13T11:12:42.207Z,100982.94
2022-12-13T11:15:18.994Z,100985.91
2022-12-13T11:17:56.918Z,100985.00
2022-12-13T11:20:30.964Z,100979.19
2022-12-13T11:23:28.590Z,100976.44
2022-12-13T11:25:59.372Z,100972.34
2022-12-13T11:29:03.568Z,100964.91
2022-12-13T11:31:42.264Z,100960.69
2022-12-13T11:34:08.602Z,100962.16
2022-12-13T11:37:06.154Z,100954.72
2022-12-13T11:39:32.589Z,100946.34
2022-12-13T11:42:19.344Z,100933.63
2022-12-13T11:45:00.157Z,100941.44
2022-12-13T11:47:34.634Z,100939.69
2022-12-13T11:50:05.164Z,100938.31
2022-12-13T11:52:46.829Z,100944.16
2022-12-13T11:55:20.052Z,100935.06
2022-12-13T11:57:59.429Z,100938.31
2022-12-13T12:00:45.622Z,100932.06
2022-12-13T12:03:45.913Z,100929.09
2022-12-13T12:06:18.085Z,100930.66
2022-12-13T12:08:56.237Z,100930.44
2022-12-13T12:11:34.365Z,100915.72
2022-12-13T12:14:19.677Z,100934.69
2022-12-13T12:16:52.973Z,100930.00
2022-12-13T12:19:31.621Z,100927.97
2022-12-13T12:22:17.035Z,100933.84
2022-12-13T12:25:00.338Z,100932.06
2022-12-13T12:27:29.535Z,100933.84
2022-12-13T12:30:14.072Z,100931.56
2022-12-13T12:33:07.707Z,100923.09
2022-12-13T12:35:50.774Z,100921.16
2022-12-13T12:38:46.347Z,100922.63
2022-12-13T12:41:25.067Z,100916.94
2022-12-13T12:44:03.947Z,100914.53
2022-12-13T12:47:18.024Z,100915.28
2022-12-13T12:50:23.887Z,100908.88
2022-12-13T12:53:03.048Z,100908.16
2022-12-13T12:55:50.035Z,100905.28
2022-12-13T12:58:28.821Z,100904.25
2022-12-13T13:01:22.112Z,100897.72
2022-12-13T13:03:51.716Z,100895.19
2022-12-13T13:06:34.778Z,100896.38
2022-12-13T13:09:07.850Z,100888.13
2022-12-13T13:11:42.809Z,100887.31
2022-12-13T13:14:36.564Z,100892.66
2022-12-13T13:17:26.339Z,100883.00
2022-12-13T13:20:07.886Z,100886.81
2022-12-13T13:22:44.121Z,100882.50
2022-12-13T13:25:31.401Z,100868.56
2022-12-13T13:28:05.418Z,100864.28
2022-12-13T13:30:32.710Z,100854.38
2022-12-13T13:33:00.327Z,100850.06
2022-12-13T13:35:32.881Z,100854.69
2022-12-13T13:38:04.497Z,100857.22
2022-12-13T13:40:36.784Z,100853.75
2022-12-13T13:43:06.308Z,100855.53
2022-12-13T13:45:58.104Z,100864.00
2022-12-13T13:48:37.919Z,100862.00
2022-12-13T13:51:32.442Z,100858.31
2022-12-13T13:54:37.148Z,100858.31
2022-12-13T13:57:22.322Z,100858.22
2022-12-13T14:00:12.065Z,100844.63
2022-12-13T14:03:22.208Z,100848.78
2022-12-13T14:06:12.641Z,100841.16
2022-12-13T14:09:00.889Z,100841.03
2022-12-13T14:12:03.781Z,100841.88
2022-12-13T14:14:55.247Z,100842.09
2022-12-13T14:17:46.947Z,100828.28
2022-12-13T14:20:40.161Z,100810.38
2022-12-13T14:23:22.281Z,100831.59
2022-12-13T14:26:25.965Z,100824.22
2022-12-13T14:29:03.976Z,100823.25
2022-12-13T14:31:39.594Z,100824.09
2022-12-13T14:34:07.924Z,100818.97
2022-12-13T14:36:36.492Z,100823.47
2022-12-13T14:39:07.093Z,100821.81
2022-12-13T14:41:56.563Z,100829.06
2022-12-13T14:44:29.549Z,100823.94
2022-12-13T14:46:59.715Z,100822.13
2022-12-13T14:49:29.241Z,100808.53
2022-12-13T14:52:03.535Z,100813.78
2022-12-13T14:54:44.392Z,100803.44
2022-12-13T14:57:18.325Z,100806.03
2022-12-13T14:59:50.131Z,100814.13
2022-12-13T15:02:30.932Z,100811.50
2022-12-13T15:05:04.479Z,100812.47
2022-12-13T15:07:39.245Z,100803.28
2022-12-13T15:10:14.709Z,100803.66
2022-12-13T15:12:43.452Z,100797.81
2022-12-13T15:15:29.045Z,100789.13
2022-12-13T15:18:18.251Z,100785.78
2022-12-13T15:20:46.904Z,100789.22
2022-12-13T15:23:27.130Z,100792.63
2022-12-13T15:26:01.924Z,100785.72
2022-12-13T15:28:34.029Z,100794.41
2022-12-13T15:31:01.506Z,100785.94
2022-12-13T15:33:34.402Z,100784.97
2022-12-13T15:36:06.611Z,100785.44
2022-12-13T15:38:34.392Z,100778.84
2022-12-13T15:41:02.875Z,100778.44
2022-12-13T15:43:42.589Z,100784.47
2022-12-13T15:46:10.144Z,100782.09
2022-12-13T15:48:40.381Z,100771.44
2022-12-13T15:51:28.727Z,100775.50
2022-12-13T15:54:08.924Z,100779.91
2022-12-13T15:56:43.822Z,100775.94
2022-12-13T15:59:34.786Z,100780.97
2022-12-13T16:02:03.487Z,100788.81
2022-12-13T16:04:33.303Z,100778.69
2022-12-13T16:07:00.899Z,100788.41
2022-12-13T16:09:31.639Z,100780.41
2022-12-13T16:12:04.764Z,100778.41
2022-12-13T16:14:31.287Z,100770.66
2022-12-13T16:17:08.421Z,100768.75
2022-12-13T16:19:35.487Z,100764.38
2022-12-13T16:22:02.181Z,100756.75
2022-12-13T16:24:36.524Z,100753.50
2022-12-13T16:27:08.666Z,100746.00
2022-12-13T16:29:36.551Z,100733.66
2022-12-13T16:32:08.760Z,100748.81
2022-12-13T16:34:36.075Z,100739.84
2022-12-13T16:37:02.714Z,100746.13
2022-12-13T16:39:35.150Z,100745.16
2022-12-13T16:42:01.530Z,100744.66
2022-12-13T16:44:35.218Z,100745.38
2022-12-13T16:47:13.208Z,100748.75
2022-12-13T16:49:46.364Z,100750.00
2022-12-13T16:52:12.776Z,100752.50
2022-12-13T16:54:39.245Z,100752.72
2022-12-13T16:57:05.631Z,100754.50
2022-12-13T16:59:32.649Z,100756.91
2022-12-13T17:01:59.074Z,100749.19
2022-12-13T17:04:27.265Z,100758.06
2022-12-13T17:06:55.129Z,100754.72
2022-12-13T17:09:22.837Z,100754.09
2022-12-13T17:11:49.283Z,100749.94
2022-12-13T17:14:15.692Z,100746.47
2022-12-13T17:16:42.217Z,100737.78
2022-12-13T17:19:10.535Z,100740.19
2022-12-13T17:21:37.101Z,100742.72
2022-12-13T17:24:04.817Z,100746.06
2022-12-13T17:26:31.239Z,100747.81
2022-12-13T17:28:57.735Z,100745.09
2022-12-13T17:31:25.746Z,100746.97
2022-12-13T17:33:57.147Z,100743.44
2022-12-13T17:36:23.555Z,100747.72
2022-12-13T17:38:49.945Z,100745.22
2022-12-13T17:41:16.475Z,100741.97
2022-12-13T17:43:43.836Z,100743.63
2022-12-13T17:46:14.229Z,100731.13
2022-12-13T17:48:41.984Z,100738.81
2022-12-13T17:51:10.294Z,100740.81
2022-12-13T17:53:38.710Z,100742.72
2022-12-13T17:56:07.719Z,100747.94
2022-12-13T17:58:35.389Z,100743.63
2022-12-13T18:01:18.267Z,100736.75
2022-12-13T18:03:45.127Z,100730.78
2022-12-13T18:06:12.053Z,100732.66
2022-12-13T18:08:39.516Z,100728.28
2022-12-13T18:13:54.989Z,100717.31
2022-12-13T18:16:23.251Z,100714.06
2022-12-13T18:18:55.249Z,100713.16
2022-12-13T18:21:22.334Z,100707.69
2022-12-13T18:23:55.595Z,100705.31
2022-12-13T18:26:24.089Z,100700.88
2022-12-13T18:28:50.785Z,100704.56
2022-12-13T18:31:20.194Z,100709.78
2022-12-13T18:33:48.101Z,100717.53
2022-12-13T18:36:16.253Z,100712.59
2022-12-13T18:38:43.315Z,100703.28
2022-12-13T18:41:13.877Z,100696.50
2022-12-13T18:43:41.005Z,100692.31
2022-12-13T18:46:08.379Z,100695.78
2022-12-13T18:48:35.007Z,100695.66
2022-12-13T18:51:03.051Z,100707.69
2022-12-13T18:53:32.234Z,100694.50
2022-12-13T18:56:04.782Z,100682.38
2022-12-13T18:58:35.878Z,100679.06
2022-12-13T19:01:11.655Z,100676.56
2022-12-13T19:03:39.028Z,100674.88
2022-12-13T19:06:06.927Z,100677.38
2022-12-13T19:08:34.072Z,100674.75
2022-12-13T19:11:02.202Z,100679.06
2022-12-13T19:13:29.804Z,100669.53
2022-12-13T19:15:58.316Z,100666.50
2022-12-13T19:18:25.065Z,100669.41
2022-12-13T19:20:53.720Z,100663.38
2022-12-13T19:23:20.477Z,100663.38
2022-12-13T19:25:48.816Z,100657.31
2022-12-13T19:28:17.441Z,100652.19
2022-12-13T19:30:45.934Z,100644.66
2022-12-13T19:33:14.386Z,100644.75
2022-12-13T19:35:43.142Z,100656.06
2022-12-13T19:38:10.239Z,100640.59
2022-12-13T19:40:40.679Z,100640.59
2022-12-13T19:43:07.240Z,100639.75
2022-12-13T19:45:34.121Z,100644.97
2022-12-13T19:48:00.546Z,100653.88
2022-12-13T19:50:28.613Z,100648.16
2022-12-13T19:52:55.061Z,100642.19
2022-12-13T19:55:21.545Z,100638.63
2022-12-13T19:57:48.018Z,100634.56
2022-12-13T20:00:16.156Z,100633.00
2022-12-13T20:02:42.798Z,100627.88
2022-12-13T20:05:09.540Z,100614.09
2022-12-13T20:07:36.170Z,100610.75
2022-12-13T20:10:04.293Z,100607.22
2022-12-13T20:12:37.066Z,100608.00
2022-12-13T20:15:07.954Z,100603.84
2022-12-13T20:17:36.035Z,100592.38
2022-12-13T20:20:03.842Z,100612.31
2022-12-13T20:22:30.969Z,100605.22
2022-12-13T20:24:57.452Z,100595.78
2022-12-13T20:27:24.541Z,100588.59
2022-12-13T20:29:51.106Z,100588.69
2022-12-13T20:32:20.850Z,100586.81
2022-12-13T20:34:53.093Z,100567.28
2022-12-13T20:37:21.275Z,100590.84
2022-12-13T20:39:47.876Z,100582.94
2022-12-13T20:42:14.366Z,100583.97
2022-12-13T20:44:40.778Z,100573.75
2022-12-13T20:47:07.244Z,100571.97
2022-12-13T20:49:33.713Z,100572.56
2022-12-13T20:52:00.184Z,100555.22
2022-12-13T20:54:26.578Z,100531.31
2022-12-13T20:56:53.132Z,100551.47
2022-12-13T20:59:19.621Z,100538.41
2022-12-13T21:01:49.054Z,100542.78
2022-12-13T21:04:15.969Z,100537.09
2022-12-13T21:06:42.740Z,100520.66
2022-12-13T21:09:10.939Z,100532.50
2022-12-13T21:11:40.489Z,100537.59
2022-12-13T21:14:16.934Z,100528.34
2022-12-13T21:16:47.347Z,100525.13
2022-12-13T21:19:17.012Z,100526.25
2022-12-13T21:21:43.699Z,100530.56
2022-12-13T21:24:14.664Z,100527.00
2022-12-13T21:26:41.270Z,100527.00
2022-12-13T21:29:10.962Z,100528.06
2022-12-13T21:31:40.080Z,100532.34
2022-12-13T21:34:07.181Z,100521.38
2022-12-13T21:36:36.807Z,100523.03
2022-12-13T21:39:06.594Z,100515.94
2022-12-13T21:41:33.176Z,100519.72
2022-12-13T21:44:00.575Z,100524.59
2022-12-13T21:46:47.812Z,100520.22
2022-12-13T21:49:15.392Z,100515.44
2022-12-13T21:51:47.432Z,100510.09
2022-12-13T21:54:14.552Z,100509.28
2022-12-13T21:56:59.654Z,100498.81
2022-12-13T21:59:27.782Z,100490.97
2022-12-13T22:02:12.241Z,100481.47
2022-12-13T22:04:47.316Z,100491.91
2022-12-13T22:07:20.982Z,100489.19
2022-12-13T22:09:48.371Z,100486.56
2022-12-13T22:12:35.549Z,100485.53
2022-12-13T22:15:02.920Z,100488.03
2022-12-13T22:17:35.128Z,100479.22
2022-12-13T22:20:06.636Z,100472.25
2022-12-13T22:22:33.314Z,100466.91
2022-12-13T22:25:00.048Z,100466.66
2022-12-13T22:27:26.825Z,100460.50
2022-12-13T22:29:56.695Z,100459.31
2022-12-13T22:32:28.507Z,100464.22
2022-12-13T22:34:55.408Z,100455.53
2022-12-13T22:37:22.308Z,100461.50
2022-12-13T22:39:49.962Z,100451.78
2022-12-13T22:42:16.545Z,100450.94
2022-12-13T22:44:43.088Z,100445.59
2022-12-13T22:47:09.544Z,100447.13
2022-12-13T22:49:35.973Z,100447.84
2022-12-13T22:52:02.617Z,100443.56
2022-12-13T22:54:29.015Z,100433.97
2022-12-13T22:56:55.526Z,100431.91
2022-12-13T22:59:22.013Z,100430.16
2022-12-13T23:01:48.587Z,100417.78
2022-12-13T23:04:15.468Z,100421.38
2022-12-13T23:06:42.081Z,100424.69
2022-12-13T23:09:12.178Z,100426.38
2022-12-13T23:11:57.491Z,100406.38
2022-12-13T23:14:33.379Z,100419.69
2022-12-13T23:17:01.406Z,100425.75
2022-12-13T23:19:49.014Z,100427.41
2022-12-13T23:22:15.482Z,100419.69
2022-12-13T23:24:41.870Z,100420.31
2022-12-13T23:27:10.387Z,100421.25
2022-12-13T23:29:36.865Z,100409.13
2022-12-13T23:32:03.388Z,100409.84
2022-12-13T23:34:29.728Z,100417.56
2022-12-13T23:36:56.095Z,100396.66
2022-12-13T23:39:22.460Z,100414.13
2022-12-13T23:41:48.891Z,100412.34
2022-12-13T23:44:15.755Z,100405.47
2022-12-13T23:46:42.203Z,100406.38
2022-12-13T23:49:15.719Z,100414.03
2022-12-13T23:51:42.261Z,100408.78
2022-12-13T23:54:09.805Z,100416.53
2022-12-13T23:56:36.208Z,100413.78
2022-12-13T23:59:02.634Z,100415.69
